Time;durP1;ratioP1;P1;durP2;ratioP2;P2;SDS_P1;SDS_P2;PMS_P1;PMS_P2;Temp;Humidity;BMP_temperature;BMP_pressure;BME280_temperature;BME280_humidity;BME280_pressure;Samples;Min_cycle;Max_cycle;Signal;HPM_P1;HPM_P2
2021/08/13 00:02:03;;;;;;;;;;;;;;;19.41;49.57;101264.38;5118957;28;938;-49
2021/08/13 00:04:28;;;;;;;;;;;;;;;19.00;49.02;101269.97;5119523;28;743;-49
2021/08/13 00:06:53;;;;;;;;;;;;;;;18.97;48.23;101272.19;5119331;28;1051;-53
2021/08/13 00:09:21;;;;;;;;;;;;;;;18.84;49.06;101261.69;5119706;28;759;-47
2021/08/13 00:11:47;;;;;;;;;;;;;;;19.10;49.46;101273.53;5119624;28;1910;-47
2021/08/13 00:14:12;;;;;;;;;;;;;;;19.24;50.00;101271.03;5119126;28;836;-57
2021/08/13 00:16:38;;;;;;;;;;;;;;;19.47;51.24;101264.06;5119135;28;969;-48
2021/08/13 00:19:04;;;;;;;;;;;;;;;19.41;53.53;101265.19;5119236;28;826;-58
2021/08/13 00:21:29;;;;;;;;;;;;;;;19.72;54.62;101242.16;5101101;28;759;-49
2021/08/13 00:23:56;;;;;;;;;;;;;;;19.86;55.95;101242.41;5119017;28;787;-48
2021/08/13 00:26:21;;;;;;;;;;;;;;;20.04;56.91;101258.31;5119199;28;905;-54
2021/08/13 00:28:47;;;;;;;;;;;;;;;20.17;57.49;101254.91;5118761;28;795;-46
2021/08/13 00:31:12;;;;;;;;;;;;;;;20.43;57.48;101268.53;5100327;28;1913;-57
2021/08/13 00:33:38;;;;;;;;;;;;;;;20.36;58.28;101262.50;5100834;28;1224;-48
2021/08/13 00:36:04;;;;;;;;;;;;;;;20.55;58.01;101272.84;5100901;28;1260;-48
2021/08/13 00:38:31;;;;;;;;;;;;;;;20.59;58.28;101277.50;5100548;28;1320;-48
2021/08/13 00:40:57;;;;;;;;;;;;;;;20.66;58.04;101279.94;5100654;28;1177;-47
2021/08/13 00:43:25;;;;;;;;;;;;;;;20.46;57.41;101290.03;5118963;28;767;-57
2021/08/13 00:45:51;;;;;;;;;;;;;;;20.17;55.37;101292.72;5100622;28;1165;-46
2021/08/13 00:48:18;;;;;;;;;;;;;;;19.96;53.05;101289.25;5100590;28;1259;-47
2021/08/13 00:50:55;;;;;;;;;;;;;;;19.62;51.38;101285.25;5100792;28;1985;-49
2021/08/13 00:53:22;;;;;;;;;;;;;;;19.39;50.18;101289.47;5083615;28;1118;-56
2021/08/13 00:55:49;;;;;;;;;;;;;;;19.26;48.86;101292.81;5100678;28;1322;-46
2021/08/13 00:58:43;;;;;;;;;;;;;;;18.87;48.15;101282.34;5096451;28;1469;-46
2021/08/13 01:01:35;;;;;;;;;;;;;;;18.81;48.38;101290.63;5072875;28;1102;-59
2021/08/13 01:04:02;;;;;;;;;;;;;;;18.89;49.79;101285.72;5118455;28;782;-49
2021/08/13 01:06:28;;;;;;;;;;;;;;;19.22;51.75;101289.75;5100162;28;1229;-55
2021/08/13 01:08:54;;;;;;;;;;;;;;;19.54;53.43;101288.56;5099868;28;1343;-58
2021/08/13 01:11:40;;;;;;;;;;;;;;;19.70;55.27;101289.34;5083640;28;1976;-48
2021/08/13 01:14:10;;;;;;;;;;;;;;;20.02;56.16;101290.91;5100395;28;1356;-51
2021/08/13 01:16:41;;;;;;;;;;;;;;;20.23;56.75;101285.22;5083200;28;1276;-58
2021/08/13 01:19:12;;;;;;;;;;;;;;;20.36;57.39;101290.13;5118321;28;795;-50
2021/08/13 01:21:50;;;;;;;;;;;;;;;20.57;57.49;101287.22;5083221;28;1339;-48
2021/08/13 01:24:22;;;;;;;;;;;;;;;20.57;58.24;101281.69;5083765;28;1150;-53
2021/08/13 01:26:50;;;;;;;;;;;;;;;20.61;58.57;101288.31;5100207;28;1118;-50
2021/08/13 01:29:33;;;;;;;;;;;;;;;20.57;58.14;101290.00;5099886;28;1137;-59
2021/08/13 01:32:11;;;;;;;;;;;;;;;20.43;56.10;101282.34;5099227;28;1977;-58
2021/08/13 01:34:40;;;;;;;;;;;;;;;19.95;54.30;101287.59;5099951;28;1344;-53
2021/08/13 01:37:05;;;;;;;;;;;;;;;19.80;51.85;101288.53;5099484;28;1109;-52
2021/08/13 01:39:35;;;;;;;;;;;;;;;19.29;50.73;101290.31;5099813;28;1177;-55
2021/08/13 01:42:01;;;;;;;;;;;;;;;19.30;48.95;101289.19;5117831;28;783;-57
2021/08/13 01:44:28;;;;;;;;;;;;;;;19.07;48.83;101284.28;5082262;28;1218;-52
2021/08/13 01:46:55;;;;;;;;;;;;;;;19.11;50.12;101280.72;5082720;28;1125;-52
2021/08/13 01:49:20;;;;;;;;;;;;;;;19.34;52.24;101281.19;5099041;28;1098;-58
2021/08/13 01:51:48;;;;;;;;;;;;;;;19.70;53.68;101288.50;5082728;28;1909;-51
2021/08/13 01:54:14;;;;;;;;;;;;;;;19.81;55.20;101285.47;5099671;28;1209;-58
2021/08/13 01:56:46;;;;;;;;;;;;;;;20.04;56.01;101282.34;5082777;28;1148;-46
2021/08/13 01:59:12;;;;;;;;;;;;;;;20.12;56.89;101285.31;5081696;28;1897;-57
2021/08/13 02:01:38;;;;;;;;;;;;;;;20.33;57.27;101287.94;5079015;28;1169;-47
2021/08/13 02:04:04;;;;;;;;;;;;;;;20.58;57.12;101286.09;5062262;28;1111;-50
2021/08/13 02:06:30;;;;;;;;;;;;;;;20.56;57.54;101288.34;5078437;28;1162;-45
2021/08/13 02:08:57;;;;;;;;;;;;;;;20.63;57.82;101291.59;5079111;28;1269;-47
2021/08/13 02:11:30;;;;;;;;;;;;;;;20.76;57.62;101293.72;5098797;28;1965;-47
2021/08/13 02:13:57;;;;;;;;;;;;;;;20.80;57.50;101294.81;5081406;28;2224;-48
2021/08/13 02:16:26;;;;;;;;;;;;;;;20.44;56.36;101295.03;5081695;28;1260;-57
2021/08/13 02:19:12;;;;;;;;;;;;;;;20.12;53.85;101299.13;5115857;28;1101;-59
2021/08/13 02:21:38;;;;;;;;;;;;;;;19.65;50.97;101305.94;5082029;28;1274;-51
2021/08/13 02:24:05;;;;;;;;;;;;;;;19.27;48.56;101305.50;5098824;28;1150;-58
2021/08/13 02:26:32;;;;;;;;;;;;;;;18.79;47.49;101303.03;5081896;28;1499;-49
2021/08/13 02:28:57;;;;;;;;;;;;;;;18.67;46.35;101300.53;5097688;28;1138;-59
2021/08/13 02:31:23;;;;;;;;;;;;;;;18.74;49.11;101295.56;5098308;28;1978;-48
2021/08/13 02:33:48;;;;;;;;;;;;;;;19.37;52.07;101305.44;5116630;28;771;-48
2021/08/13 02:36:15;;;;;;;;;;;;;;;19.68;54.36;101299.84;5098385;28;1260;-59
2021/08/13 02:38:46;;;;;;;;;;;;;;;20.03;55.75;101308.28;5082113;28;1311;-59
2021/08/13 02:41:12;;;;;;;;;;;;;;;20.16;57.20;101314.00;5081148;28;1182;-50
2021/08/13 02:43:39;;;;;;;;;;;;;;;20.30;57.70;101328.00;5098297;28;763;-48
2021/08/13 02:46:06;;;;;;;;;;;;;;;20.44;56.85;101324.59;5098603;28;1263;-54
2021/08/13 02:48:35;;;;;;;;;;;;;;;20.24;55.99;101328.31;5081923;28;1149;-51
2021/08/13 02:51:00;;;;;;;;;;;;;;;20.10;55.30;101319.84;5097886;28;1913;-50
2021/08/13 02:53:26;;;;;;;;;;;;;;;19.87;54.44;101330.44;5116953;28;783;-50
2021/08/13 02:56:01;;;;;;;;;;;;;;;19.75;53.75;101325.19;5081665;28;1320;-59
2021/08/13 02:58:29;;;;;;;;;;;;;;;19.77;52.71;101334.03;5098055;28;1193;-48
2021/08/13 03:00:55;;;;;;;;;;;;;;;19.77;52.20;101334.03;5081507;28;1122;-59
2021/08/13 03:03:20;;;;;;;;;;;;;;;19.46;52.66;101331.38;5101184;28;1221;-50
2021/08/13 03:05:50;;;;;;;;;;;;;;;19.53;52.04;101335.75;5085316;28;1141;-51
2021/08/13 03:08:16;;;;;;;;;;;;;;;19.57;51.55;101334.09;5082414;28;1210;-51
2021/08/13 03:10:42;;;;;;;;;;;;;;;19.38;51.97;101340.22;5098809;28;1907;-49
2021/08/13 03:13:08;;;;;;;;;;;;;;;19.38;51.86;101337.44;5100214;28;1198;-48
2021/08/13 03:15:34;;;;;;;;;;;;;;;19.28;51.95;101343.00;5098990;28;1102;-48
2021/08/13 03:17:59;;;;;;;;;;;;;;;19.32;51.67;101342.16;5099016;28;1271;-48
2021/08/13 03:20:25;;;;;;;;;;;;;;;19.25;51.83;101343.53;5081650;28;1152;-58
2021/08/13 03:23:07;;;;;;;;;;;;;;;19.13;52.17;101338.31;5099008;28;1144;-48
2021/08/13 03:25:33;;;;;;;;;;;;;;;19.19;51.77;101350.16;5099101;28;1205;-57
2021/08/13 03:28:01;;;;;;;;;;;;;;;19.23;51.72;101345.75;5098547;28;1239;-58
2021/08/13 03:30:27;;;;;;;;;;;;;;;19.31;53.13;101342.44;5098367;28;1914;-51
2021/08/13 03:32:54;;;;;;;;;;;;;;;19.48;54.27;101337.41;5098681;28;1188;-57
2021/08/13 03:35:22;;;;;;;;;;;;;;;19.79;54.75;101342.88;5098652;28;992;-60
2021/08/13 03:37:48;;;;;;;;;;;;;;;19.82;55.83;101350.59;5081856;28;1145;-59
2021/08/13 03:40:14;;;;;;;;;;;;;;;19.91;56.05;101350.84;5099430;28;827;-59
2021/08/13 03:42:43;;;;;;;;;;;;;;;19.97;56.80;101354.41;5081985;28;1117;-57
2021/08/13 03:45:08;;;;;;;;;;;;;;;20.13;56.81;101352.38;5099576;28;779;-57
2021/08/13 03:47:34;;;;;;;;;;;;;;;20.20;57.00;101352.09;5098667;28;1152;-58
2021/08/13 03:50:00;;;;;;;;;;;;;;;20.26;57.19;101351.78;5098286;28;1972;-56
2021/08/13 03:52:26;;;;;;;;;;;;;;;20.38;57.09;101358.88;5097811;28;1069;-59
2021/08/13 03:54:51;;;;;;;;;;;;;;;20.35;57.40;101363.03;5098660;28;757;-53
2021/08/13 03:57:22;;;;;;;;;;;;;;;20.44;57.55;101355.81;5098157;28;1439;-58
2021/08/13 03:59:48;;;;;;;;;;;;;;;20.47;57.65;101363.53;5098771;28;1168;-57
2021/08/13 04:02:13;;;;;;;;;;;;;;;20.73;57.07;101360.59;5097908;28;1124;-55
2021/08/13 04:04:39;;;;;;;;;;;;;;;20.66;57.43;101362.84;5098987;28;850;-54
2021/08/13 04:07:05;;;;;;;;;;;;;;;20.50;57.09;101357.44;5097825;28;1109;-60
2021/08/13 04:09:30;;;;;;;;;;;;;;;20.33;55.46;101357.81;5098315;28;1089;-57
2021/08/13 04:11:56;;;;;;;;;;;;;;;19.93;53.95;101358.84;5097834;28;1894;-52
2021/08/13 04:14:25;;;;;;;;;;;;;;;19.56;52.59;101351.72;5097442;28;1216;-65
2021/08/13 04:16:50;;;;;;;;;;;;;;;19.53;50.36;101360.56;5098993;28;887;-47
2021/08/13 04:19:16;;;;;;;;;;;;;;;19.20;49.36;101360.09;5097642;28;1100;-50
2021/08/13 04:21:41;;;;;;;;;;;;;;;18.99;48.20;101362.84;5098447;28;766;-49
2021/08/13 04:24:07;;;;;;;;;;;;;;;18.84;48.75;101354.56;5098087;28;1231;-46
2021/08/13 04:26:32;;;;;;;;;;;;;;;19.06;50.51;101360.63;5097419;28;1121;-57
2021/08/13 04:28:58;;;;;;;;;;;;;;;19.38;52.46;101375.25;5097336;28;787;-49
2021/08/13 04:31:24;;;;;;;;;;;;;;;19.69;53.99;101364.94;5098208;28;1972;-63
2021/08/13 04:33:49;;;;;;;;;;;;;;;19.96;55.30;101380.34;5097560;28;1220;-68
2021/08/13 04:36:19;;;;;;;;;;;;;;;20.01;57.20;101372.06;5081172;28;1117;-59
2021/08/13 04:38:45;;;;;;;;;;;;;;;20.28;57.98;101376.34;5080319;28;1394;-61
2021/08/13 04:41:11;;;;;;;;;;;;;;;20.54;57.74;101373.41;5097487;28;1120;-60
2021/08/13 04:43:39;;;;;;;;;;;;;;;20.65;57.92;101380.53;5096977;28;1164;-60
2021/08/13 04:46:06;;;;;;;;;;;;;;;20.56;57.65;101383.09;5097116;28;1169;-62
2021/08/13 04:48:32;;;;;;;;;;;;;;;20.26;56.20;101393.19;5097160;28;1255;-60
2021/08/13 04:50:57;;;;;;;;;;;;;;;20.02;54.43;101395.81;5097125;28;1923;-52
2021/08/13 04:53:23;;;;;;;;;;;;;;;19.81;52.00;101392.25;5096905;28;1232;-60
2021/08/13 04:55:48;;;;;;;;;;;;;;;19.38;50.83;101400.88;5097179;28;1303;-54
2021/08/13 04:58:15;;;;;;;;;;;;;;;19.16;49.45;101398.41;5096741;28;1240;-55
2021/08/13 05:00:41;;;;;;;;;;;;;;;18.99;48.68;101401.44;5080608;28;1161;-47
2021/08/13 05:03:11;;;;;;;;;;;;;;;18.97;48.30;101400.88;5096797;28;1255;-59
2021/08/13 05:05:43;;;;;;;;;;;;;;;19.08;48.90;101399.81;5096940;28;1215;-55
2021/08/13 05:08:09;;;;;;;;;;;;;;;19.04;49.87;101415.22;5096840;28;1327;-47
2021/08/13 05:10:34;;;;;;;;;;;;;;;19.08;50.92;101410.81;5079333;28;1913;-47
2021/08/13 05:13:01;;;;;;;;;;;;;;;19.26;50.68;101412.19;5096359;28;1184;-55
2021/08/13 05:15:27;;;;;;;;;;;;;;;19.11;51.25;101413.03;5096757;28;1615;-56
2021/08/13 05:17:52;;;;;;;;;;;;;;;19.20;51.47;101420.75;5096583;28;1129;-56
2021/08/13 05:20:19;;;;;;;;;;;;;;;19.25;51.66;101418.81;5096638;28;1113;-46
2021/08/13 05:22:54;;;;;;;;;;;;;;;19.39;52.93;101421.00;5096194;28;1303;-55
2021/08/13 05:25:20;;;;;;;;;;;;;;;19.77;54.55;101416.81;5095728;28;1409;-47
2021/08/13 05:27:46;;;;;;;;;;;;;;;20.14;56.52;101420.31;5096128;28;1924;-55
2021/08/13 05:30:13;;;;;;;;;;;;;;;20.39;58.00;101422.13;5096561;28;1913;-56
2021/08/13 05:32:41;;;;;;;;;;;;;;;20.81;57.95;101426.34;5095839;28;1394;-48
2021/08/13 05:35:07;;;;;;;;;;;;;;;20.94;58.32;101424.84;5096018;28;1184;-46
2021/08/13 05:37:33;;;;;;;;;;;;;;;20.75;58.07;101429.41;5096446;28;1136;-47
2021/08/13 05:39:58;;;;;;;;;;;;;;;20.32;56.09;101430.72;5079252;28;1134;-47
2021/08/13 05:42:24;;;;;;;;;;;;;;;19.73;53.98;101425.94;5096905;28;807;-58
2021/08/13 05:44:50;;;;;;;;;;;;;;;19.39;50.99;101434.78;5095808;28;1108;-58
2021/08/13 05:47:18;;;;;;;;;;;;;;;19.04;48.86;101430.91;5096590;28;994;-46
2021/08/13 05:49:44;;;;;;;;;;;;;;;18.73;47.31;101434.44;5095676;28;1148;-60
2021/08/13 05:52:10;;;;;;;;;;;;;;;18.64;48.21;101438.81;5095875;28;1918;-48
2021/08/13 05:54:36;;;;;;;;;;;;;;;19.07;50.60;101441.38;5095799;28;1232;-48
2021/08/13 05:57:02;;;;;;;;;;;;;;;19.60;54.50;101444.72;5095804;28;1199;-47
2021/08/13 05:59:27;;;;;;;;;;;;;;;20.01;57.03;101443.81;5097090;28;783;-61
2021/08/13 06:01:54;;;;;;;;;;;;;;;20.47;58.31;101451.94;5095601;28;1169;-61
2021/08/13 06:04:19;;;;;;;;;;;;;;;20.73;58.96;101443.53;5096444;28;767;-60
2021/08/13 06:06:45;;;;;;;;;;;;;;;20.99;58.94;101454.44;5078579;28;1238;-62
2021/08/13 06:09:12;;;;;;;;;;;;;;;21.11;59.20;101457.66;5096089;28;1519;-63
2021/08/13 06:11:39;;;;;;;;;;;;;;;20.87;58.38;101453.94;5095021;28;1922;-52
2021/08/13 06:14:06;;;;;;;;;;;;;;;20.36;56.34;101455.84;5078061;28;1030;-57
2021/08/13 06:16:32;;;;;;;;;;;;;;;19.90;54.24;101465.09;5095343;28;1276;-47
2021/08/13 06:18:59;;;;;;;;;;;;;;;19.70;51.68;101457.66;5095387;28;1125;-55
2021/08/13 06:21:24;;;;;;;;;;;;;;;19.27;50.60;101462.66;5095734;28;1160;-51
2021/08/13 06:23:51;;;;;;;;;;;;;;;19.29;48.78;101465.94;5096805;28;791;-49
2021/08/13 06:26:17;;;;;;;;;;;;;;;19.15;48.08;101465.66;5095965;28;540;-51
2021/08/13 06:28:46;;;;;;;;;;;;;;;18.97;48.29;101461.50;5095689;28;1425;-59
2021/08/13 06:31:12;;;;;;;;;;;;;;;19.04;49.01;101470.34;5096388;28;1906;-59
2021/08/13 06:33:38;;;;;;;;;;;;;;;19.17;50.16;101459.88;5095821;28;791;-60
2021/08/13 06:36:04;;;;;;;;;;;;;;;19.22;50.65;101459.88;5095171;28;1850;-46
2021/08/13 06:38:32;;;;;;;;;;;;;;;19.42;51.04;101462.66;5095516;28;1352;-64
2021/08/13 06:40:58;;;;;;;;;;;;;;;19.40;52.68;101464.84;5094574;28;819;-46
2021/08/13 06:43:25;;;;;;;;;;;;;;;19.63;54.33;101466.22;5095666;28;1298;-62
2021/08/13 06:45:56;;;;;;;;;;;;;;;19.78;55.80;101467.31;5095493;28;1023;-63
2021/08/13 06:48:29;;;;;;;;;;;;;;;20.05;56.17;101472.53;5074265;28;1229;-50
2021/08/13 06:50:54;;;;;;;;;;;;;;;20.30;56.46;101466.09;5074876;28;1910;-61
2021/08/13 06:53:22;;;;;;;;;;;;;;;20.42;56.82;101470.47;5091359;28;1346;-60
2021/08/13 06:55:47;;;;;;;;;;;;;;;20.40;57.30;101476.28;5078015;28;1431;-47
2021/08/13 06:58:13;;;;;;;;;;;;;;;20.51;57.36;101472.34;5075150;28;1278;-62
2021/08/13 07:00:40;;;;;;;;;;;;;;;20.65;57.52;101485.53;5076445;28;781;-55
2021/08/13 07:03:08;;;;;;;;;;;;;;;20.54;57.47;101484.78;5108597;28;1240;-62
2021/08/13 07:05:33;;;;;;;;;;;;;;;20.54;55.53;101486.69;5094885;28;1296;-59
2021/08/13 07:08:05;;;;;;;;;;;;;;;19.94;53.55;101482.75;5082241;28;1162;-59
2021/08/13 07:10:31;;;;;;;;;;;;;;;19.67;51.07;101480.31;5074377;28;1971;-58
2021/08/13 07:12:58;;;;;;;;;;;;;;;19.37;48.79;101481.94;5106403;28;1279;-56
2021/08/13 07:15:24;;;;;;;;;;;;;;;18.88;47.53;101479.69;5096134;28;795;-48
2021/08/13 07:17:49;;;;;;;;;;;;;;;18.62;46.81;101476.81;5094541;28;1261;-51
2021/08/13 07:20:15;;;;;;;;;;;;;;;18.83;47.97;101479.63;5095392;28;1097;-50
2021/08/13 07:22:40;;;;;;;;;;;;;;;19.52;52.43;101486.66;5094954;28;1136;-46
2021/08/13 07:25:07;;;;;;;;;;;;;;;20.02;55.86;101500.69;5094691;28;1101;-56
2021/08/13 07:27:33;;;;;;;;;;;;;;;20.46;57.08;101494.47;5095065;28;1239;-49
2021/08/13 07:29:59;;;;;;;;;;;;;;;20.68;58.58;101491.38;5095001;28;1275;-47
2021/08/13 07:32:25;;;;;;;;;;;;;;;21.11;58.40;101482.56;5093861;28;1978;-59
2021/08/13 07:34:53;;;;;;;;;;;;;;;21.17;59.57;101480.56;5094783;28;1124;-58
2021/08/13 07:37:23;;;;;;;;;;;;;;;20.95;58.64;101495.63;5094852;28;1160;-58
2021/08/13 07:39:49;;;;;;;;;;;;;;;20.53;55.97;101494.16;5093961;28;1311;-63
2021/08/13 07:42:15;;;;;;;;;;;;;;;20.11;53.06;101499.00;5061314;28;1410;-55
2021/08/13 07:44:41;;;;;;;;;;;;;;;19.57;50.78;101497.69;5094465;28;1223;-54
2021/08/13 07:47:06;;;;;;;;;;;;;;;19.19;48.86;101497.09;5094154;28;1231;-56
2021/08/13 07:49:32;;;;;;;;;;;;;;;18.88;47.46;101504.50;5098246;28;1101;-55
2021/08/13 07:51:58;;;;;;;;;;;;;;;18.62;47.08;101501.59;5098070;28;1979;-54
2021/08/13 07:54:24;;;;;;;;;;;;;;;18.77;48.96;101498.91;5098114;28;1256;-54
2021/08/13 07:56:49;;;;;;;;;;;;;;;19.27;50.45;101490.22;5099301;28;839;-53
2021/08/13 07:59:15;;;;;;;;;;;;;;;19.61;52.67;101495.19;5099382;28;806;-55
2021/08/13 08:01:40;;;;;;;;;;;;;;;19.70;55.13;101500.97;5098781;28;1020;-55
2021/08/13 08:04:06;;;;;;;;;;;;;;;19.97;56.04;101492.41;5099735;28;890;-52
2021/08/13 08:06:31;;;;;;;;;;;;;;;20.16;56.75;101501.75;5101868;28;1031;-56
2021/08/13 08:08:57;;;;;;;;;;;;;;;20.36;57.18;101494.53;5119423;28;779;-51
2021/08/13 08:11:22;;;;;;;;;;;;;;;20.60;57.27;101496.63;5119778;28;1905;-59
2021/08/13 08:13:47;;;;;;;;;;;;;;;20.52;58.02;101503.56;5119742;28;693;-48
2021/08/13 08:16:13;;;;;;;;;;;;;;;20.82;57.59;101497.09;5120027;28;962;-59
2021/08/13 08:18:38;;;;;;;;;;;;;;;20.88;57.92;101499.84;5100794;28;896;-59
2021/08/13 08:21:03;;;;;;;;;;;;;;;20.78;57.46;101501.53;5119256;28;613;-59
2021/08/13 08:23:29;;;;;;;;;;;;;;;20.44;55.64;101491.19;5119186;28;652;-56
2021/08/13 08:25:54;;;;;;;;;;;;;;;20.09;53.08;101490.19;5119531;28;898;-64
2021/08/13 08:28:19;;;;;;;;;;;;;;;19.67;51.22;101492.16;5119739;28;645;-59
2021/08/13 08:30:45;;;;;;;;;;;;;;;19.22;49.35;101481.94;5119605;28;1967;-61
2021/08/13 08:33:10;;;;;;;;;;;;;;;18.89;47.82;101489.63;5118776;28;989;-60
2021/08/13 08:35:35;;;;;;;;;;;;;;;18.79;46.74;101485.69;5119345;28;863;-60
2021/08/13 08:38:01;;;;;;;;;;;;;;;18.77;48.68;101485.13;5119175;28;625;-59
2021/08/13 08:40:28;;;;;;;;;;;;;;;19.59;52.94;101480.84;5118745;28;645;-56
2021/08/13 08:42:56;;;;;;;;;;;;;;;20.04;55.96;101481.91;5119367;28;934;-57
2021/08/13 08:45:21;;;;;;;;;;;;;;;20.46;57.66;101488.94;5119476;28;859;-56
2021/08/13 08:47:46;;;;;;;;;;;;;;;20.88;58.46;101483.25;5118111;28;934;-52
2021/08/13 08:50:12;;;;;;;;;;;;;;;21.07;59.70;101484.25;5118672;28;1901;-52
2021/08/13 08:52:37;;;;;;;;;;;;;;;21.36;59.06;101475.16;5119136;28;867;-56
2021/08/13 08:55:03;;;;;;;;;;;;;;;21.09;57.92;101476.47;5100307;28;597;-57
2021/08/13 08:57:29;;;;;;;;;;;;;;;20.58;56.08;101479.50;5118767;28;594;-57
2021/08/13 08:59:55;;;;;;;;;;;;;;;20.38;53.08;101478.47;5099702;28;849;-57
2021/08/13 09:02:21;;;;;;;;;;;;;;;19.85;51.78;101480.84;5117674;28;934;-56
2021/08/13 09:04:46;;;;;;;;;;;;;;;19.64;50.02;101472.56;5118431;28;582;-55
2021/08/13 09:07:11;;;;;;;;;;;;;;;19.38;49.03;101474.53;5118482;28;999;-49
2021/08/13 09:09:37;;;;;;;;;;;;;;;19.18;48.25;101480.84;5118749;28;863;-59
2021/08/13 09:12:02;;;;;;;;;;;;;;;18.96;48.13;101474.47;5118735;28;1909;-52
2021/08/13 09:14:43;;;;;;;;;;;;;;;18.96;48.78;101485.50;5082682;28;1140;-55
2021/08/13 09:17:08;;;;;;;;;;;;;;;19.03;49.85;101484.38;5118080;28;990;-49
2021/08/13 09:19:53;;;;;;;;;;;;;;;19.12;50.58;101471.72;5118303;28;624;-57
2021/08/13 09:22:19;;;;;;;;;;;;;;;19.31;51.77;101475.59;5099891;28;861;-57
2021/08/13 09:24:54;;;;;;;;;;;;;;;19.51;53.32;101475.91;5117800;28;633;-57
2021/08/13 09:27:37;;;;;;;;;;;;;;;19.80;54.65;101482.50;5117680;28;605;-55
2021/08/13 09:30:17;;;;;;;;;;;;;;;19.97;55.70;101484.13;5084949;28;1980;-55
2021/08/13 09:33:03;;;;;;;;;;;;;;;20.10;56.57;101480.78;5098637;28;2221;-53
2021/08/13 09:35:30;;;;;;;;;;;;;;;20.14;57.22;101487.38;5099587;28;1237;-55
2021/08/13 09:37:56;;;;;;;;;;;;;;;20.29;57.40;101486.53;5117538;28;754;-58
2021/08/13 09:40:21;;;;;;;;;;;;;;;20.51;57.08;101496.41;5117496;28;736;-58
2021/08/13 09:42:47;;;;;;;;;;;;;;;20.60;57.16;101494.69;5099173;28;804;-58
2021/08/13 09:45:12;;;;;;;;;;;;;;;20.73;57.08;101481.41;5098754;28;830;-58
2021/08/13 09:47:45;;;;;;;;;;;;;;;20.73;57.41;101490.50;5098595;28;1045;-49
2021/08/13 09:50:11;;;;;;;;;;;;;;;20.62;55.92;101491.63;5117778;28;835;-56
2021/08/13 09:52:37;;;;;;;;;;;;;;;20.24;53.44;101494.81;5098575;28;1901;-55
2021/08/13 09:55:10;;;;;;;;;;;;;;;19.87;50.98;101487.75;5099151;28;1220;-54
2021/08/13 09:57:40;;;;;;;;;;;;;;;19.45;49.30;101505.41;5117447;28;768;-51
2021/08/13 10:00:07;;;;;;;;;;;;;;;19.07;47.63;101494.63;5117379;28;803;-55
2021/08/13 10:02:43;;;;;;;;;;;;;;;18.67;46.86;101504.38;5117030;28;966;-48
2021/08/13 10:05:24;;;;;;;;;;;;;;;18.47;46.28;101496.88;5117128;28;811;-58
2021/08/13 10:07:53;;;;;;;;;;;;;;;18.72;48.30;101509.94;5098641;28;1784;-58
2021/08/13 10:10:25;;;;;;;;;;;;;;;19.24;52.95;101513.66;5117065;28;1909;-57
2021/08/13 10:12:51;;;;;;;;;;;;;;;19.96;55.56;101521.13;5098702;28;1154;-62
2021/08/13 10:15:30;;;;;;;;;;;;;;;20.38;57.73;101519.91;5116651;28;808;-60
2021/08/13 10:17:57;;;;;;;;;;;;;;;20.76;58.85;101517.59;5098457;28;1216;-59
2021/08/13 10:20:24;;;;;;;;;;;;;;;20.96;59.57;101519.41;5098689;28;1153;-60
2021/08/13 10:22:50;;;;;;;;;;;;;;;21.18;59.49;101515.38;5098425;28;1299;-50
2021/08/13 10:25:16;;;;;;;;;;;;;;;20.98;59.05;101519.13;5081861;28;1204;-58
2021/08/13 10:27:41;;;;;;;;;;;;;;;20.60;56.80;101510.44;5098845;28;1379;-52
2021/08/13 10:30:11;;;;;;;;;;;;;;;20.35;54.18;101512.19;5098231;28;1377;-54
2021/08/13 10:32:39;;;;;;;;;;;;;;;19.89;52.49;101509.53;5098448;28;1271;-60
2021/08/13 10:35:05;;;;;;;;;;;;;;;19.54;50.92;101516.72;5081918;28;1133;-58
2021/08/13 10:37:31;;;;;;;;;;;;;;;19.38;49.53;101510.38;5098312;28;1347;-57
2021/08/13 10:39:56;;;;;;;;;;;;;;;19.17;48.90;101509.50;5081740;28;1302;-53
2021/08/13 10:42:23;;;;;;;;;;;;;;;19.15;47.97;101505.09;5098714;28;1184;-56
2021/08/13 10:44:53;;;;;;;;;;;;;;;19.10;48.60;101509.78;5098473;28;756;-55
2021/08/13 10:47:20;;;;;;;;;;;;;;;19.08;49.73;101499.03;5098395;28;1204;-56
2021/08/13 10:49:46;;;;;;;;;;;;;;;19.12;50.58;101504.81;5098161;28;729;-53
2021/08/13 10:52:12;;;;;;;;;;;;;;;19.25;51.05;101507.06;5098011;28;1972;-54
2021/08/13 10:54:43;;;;;;;;;;;;;;;19.42;51.14;101505.94;5098672;28;1145;-55
2021/08/13 10:57:13;;;;;;;;;;;;;;;19.37;52.36;101509.53;5097904;28;2085;-58
2021/08/13 10:59:39;;;;;;;;;;;;;;;19.67;52.36;101502.38;5116205;28;799;-57
2021/08/13 11:02:11;;;;;;;;;;;;;;;19.62;52.15;101505.13;5098457;28;1328;-52
2021/08/13 11:04:41;;;;;;;;;;;;;;;19.58;51.98;101504.84;5082275;28;1153;-56
2021/08/13 11:07:07;;;;;;;;;;;;;;;19.49;52.19;101515.59;5098189;28;1244;-54
2021/08/13 11:09:33;;;;;;;;;;;;;;;19.36;52.48;101505.09;5098231;28;1137;-55
2021/08/13 11:12:05;;;;;;;;;;;;;;;19.39;52.28;101501.81;5098217;28;1978;-54
2021/08/13 11:14:52;;;;;;;;;;;;;;;19.48;52.32;101505.66;5098196;28;1205;-52
2021/08/13 11:17:38;;;;;;;;;;;;;;;19.43;52.36;101508.44;5098253;28;1174;-54
2021/08/13 11:20:06;;;;;;;;;;;;;;;19.55;52.09;101497.13;5097747;28;803;-53
2021/08/13 11:22:37;;;;;;;;;;;;;;;19.65;51.61;101494.34;5098033;28;1204;-51
2021/08/13 11:25:13;;;;;;;;;;;;;;;19.41;52.46;101493.28;5102457;28;1224;-54
2021/08/13 11:28:01;;;;;;;;;;;;;;;19.52;52.29;101496.84;5102560;28;1224;-51
2021/08/13 11:30:39;;;;;;;;;;;;;;;19.42;52.44;101493.00;5101778;28;1913;-57
2021/08/13 11:33:23;;;;;;;;;;;;;;;19.40;52.58;101489.66;5101833;28;1157;-55
2021/08/13 11:35:48;;;;;;;;;;;;;;;19.49;52.31;101477.00;5101515;28;753;-53
2021/08/13 11:38:14;;;;;;;;;;;;;;;19.48;52.21;101486.34;5084239;28;1198;-44
2021/08/13 11:40:40;;;;;;;;;;;;;;;19.37;52.52;101481.94;5084695;28;1146;-47
2021/08/13 11:43:05;;;;;;;;;;;;;;;19.45;52.26;101480.59;5101801;28;1220;-53
2021/08/13 11:45:47;;;;;;;;;;;;;;;19.51;52.44;101484.16;5085788;28;1275;-53
2021/08/13 11:48:20;;;;;;;;;;;;;;;19.34;52.61;101477.00;5088211;28;1265;-52
2021/08/13 11:50:45;;;;;;;;;;;;;;;19.40;52.46;101473.13;5082819;28;1910;-49
2021/08/13 11:53:11;;;;;;;;;;;;;;;19.42;52.57;101478.34;5080745;28;1208;-52
2021/08/13 11:55:38;;;;;;;;;;;;;;;19.67;51.92;101477.53;5081106;28;1173;-50
2021/08/13 11:58:07;;;;;;;;;;;;;;;19.42;52.49;101467.31;5099014;28;795;-49
2021/08/13 12:00:39;;;;;;;;;;;;;;;19.48;52.01;101475.31;5078290;28;1228;-48
2021/08/13 12:03:07;;;;;;;;;;;;;;;19.53;51.91;101477.28;5098255;28;1170;-50
2021/08/13 12:05:38;;;;;;;;;;;;;;;19.68;52.12;101470.91;5101146;28;1268;-56
2021/08/13 12:08:16;;;;;;;;;;;;;;;19.87;52.95;101464.84;5118452;28;1165;-56
2021/08/13 12:10:50;;;;;;;;;;;;;;;20.00;54.51;101472.53;5100810;28;1967;-58
2021/08/13 12:13:19;;;;;;;;;;;;;;;20.00;55.82;101465.06;5100680;28;1171;-55
2021/08/13 12:15:45;;;;;;;;;;;;;;;20.16;56.20;101476.91;5101294;28;1106;-51
2021/08/13 12:18:17;;;;;;;;;;;;;;;20.29;56.59;101472.72;5100296;28;966;-53
2021/08/13 12:20:48;;;;;;;;;;;;;;;20.35;56.98;101476.28;5083581;28;1126;-54
2021/08/13 12:23:17;;;;;;;;;;;;;;;20.57;57.11;101475.09;5100765;28;1225;-58
2021/08/13 12:25:43;;;;;;;;;;;;;;;20.51;57.83;101475.13;5118923;28;775;-60
2021/08/13 12:28:13;;;;;;;;;;;;;;;20.67;57.51;101477.81;5100187;28;1236;-54
2021/08/13 12:30:42;;;;;;;;;;;;;;;20.66;57.86;101470.63;5100599;28;1917;-53
2021/08/13 12:33:14;;;;;;;;;;;;;;;20.49;57.02;101459.94;5100986;28;1097;-52
2021/08/13 12:35:40;;;;;;;;;;;;;;;20.10;54.56;101460.63;5100713;28;1177;-50
2021/08/13 12:38:07;;;;;;;;;;;;;;;19.78;52.33;101465.38;5101036;28;1285;-52
2021/08/13 12:40:59;;;;;;;;;;;;;;;19.41;50.38;101460.19;5100775;28;1264;-51
2021/08/13 12:43:25;;;;;;;;;;;;;;;19.29;48.13;101465.94;5096129;28;1285;-51
2021/08/13 12:45:53;;;;;;;;;;;;;;;18.89;47.23;101459.31;5083786;28;1120;-51
2021/08/13 12:48:25;;;;;;;;;;;;;;;18.73;47.63;101455.63;5101105;28;1406;-57
2021/08/13 12:50:54;;;;;;;;;;;;;;;19.14;50.54;101459.34;5100157;28;1980;-55
2021/08/13 12:53:30;;;;;;;;;;;;;;;19.76;54.89;101453.78;5100357;28;1590;-55
2021/08/13 12:55:55;;;;;;;;;;;;;;;20.30;57.18;101451.44;5101067;28;1160;-55